Terminal Aerodrome Forecast
Issued by NWS Pocatello, ID

Home | Current Version | Previous Version | Text Only | Print | Product List | Glossary On
Versions: 1 2 3 4 5 6 7 8 9 10 11 12 13 14 15 16 17 18 19
702
FTUS45 KPIH 111120
TAFBYI
TAF
KBYI 111120Z 1112/1212 VRB04KT P6SM SCT002 SCT120
     FM111500 08007KT P6SM FEW008 SCT120 SCT180
     FM112200 07005KT P6SM SCT006 SCT100=

USA.gov is the U.S. government's official web portal to all federal, state and local government web resources and services.